createdAt,value
2022-10-18T00:01:24.757Z,16.90
2022-10-18T00:03:57.347Z,16.90
2022-10-18T00:06:29.297Z,16.90
2022-10-18T00:09:01.899Z,16.80
2022-10-18T00:14:07.371Z,16.60
2022-10-18T00:16:39.949Z,16.70
2022-10-18T00:19:11.878Z,16.60
2022-10-18T00:24:21.287Z,16.60
2022-10-18T00:26:53.888Z,16.70
2022-10-18T00:29:25.802Z,16.80
2022-10-18T00:31:58.390Z,16.90
2022-10-18T00:34:30.330Z,16.90
2022-10-18T00:37:02.901Z,17.10
2022-10-18T00:39:35.178Z,17.10
2022-10-18T00:42:07.630Z,17.20
2022-10-18T00:44:39.426Z,17.30
2022-10-18T00:47:15.030Z,17.30
2022-10-18T00:49:54.827Z,17.40
2022-10-18T00:52:47.625Z,17.40
2022-10-18T00:55:20.090Z,17.40
2022-10-18T01:00:30.449Z,17.40
2022-10-18T01:03:03.255Z,17.30
2022-10-18T01:05:45.197Z,17.30
2022-10-18T01:08:25.404Z,17.40
2022-10-18T01:11:16.727Z,17.40
2022-10-18T01:14:23.240Z,17.40
2022-10-18T01:17:22.818Z,17.60
2022-10-18T01:20:38.913Z,17.60
2022-10-18T01:23:51.185Z,17.60
2022-10-18T01:27:06.882Z,17.70
2022-10-18T01:30:25.443Z,17.50
2022-10-18T01:33:29.179Z,17.70
2022-10-18T01:36:29.801Z,16.00
2022-10-18T01:39:08.117Z,17.70
2022-10-18T01:41:43.989Z,17.70
2022-10-18T01:44:23.036Z,17.70
2022-10-18T01:46:57.733Z,17.70
2022-10-18T01:52:02.811Z,17.80
2022-10-18T01:54:39.499Z,17.60
2022-10-18T01:57:59.202Z,17.50
2022-10-18T02:00:42.717Z,17.60
2022-10-18T02:03:23.743Z,17.70
2022-10-18T02:06:11.222Z,17.70
2022-10-18T02:09:16.585Z,17.80
2022-10-18T02:11:54.330Z,17.80
2022-10-18T02:14:27.401Z,17.60
2022-10-18T02:17:03.981Z,17.40
2022-10-18T02:19:44.273Z,17.30
2022-10-18T02:22:19.007Z,17.20
2022-10-18T02:24:55.775Z,17.20
2022-10-18T02:30:20.382Z,17.20
2022-10-18T02:33:04.918Z,17.10
2022-10-18T02:35:44.721Z,17.10
2022-10-18T02:38:19.572Z,17.00
2022-10-18T02:40:51.870Z,17.00
2022-10-18T02:43:27.521Z,17.00
2022-10-18T02:45:59.437Z,17.00
2022-10-18T02:48:32.237Z,17.00
2022-10-18T02:51:04.275Z,16.90
2022-10-18T02:53:36.780Z,16.80
2022-10-18T02:56:09.063Z,16.70
2022-10-18T02:58:41.614Z,16.60
2022-10-18T03:01:13.515Z,16.50
2022-10-18T03:03:46.113Z,16.40
2022-10-18T03:06:18.035Z,16.20
2022-10-18T03:08:50.630Z,16.20
2022-10-18T03:11:22.778Z,16.00
2022-10-18T03:13:55.356Z,16.00
2022-10-18T03:16:27.266Z,16.00
2022-10-18T03:18:59.728Z,16.10
2022-10-18T03:21:31.618Z,16.30
2022-10-18T03:24:04.550Z,16.20
2022-10-18T03:26:36.505Z,16.10
2022-10-18T03:29:11.093Z,16.00
2022-10-18T03:31:44.023Z,16.10
2022-10-18T03:34:17.998Z,16.20
2022-10-18T03:36:49.964Z,16.20
2022-10-18T03:39:22.504Z,16.00
2022-10-18T03:41:54.401Z,15.90
2022-10-18T03:44:26.922Z,16.00
2022-10-18T03:46:58.837Z,15.90
2022-10-18T03:49:31.336Z,16.10
2022-10-18T03:52:03.336Z,16.10
2022-10-18T03:54:36.005Z,16.30
2022-10-18T03:59:40.470Z,16.30
2022-10-18T04:02:12.989Z,16.40
2022-10-18T04:04:44.958Z,16.40
2022-10-18T04:09:49.856Z,16.60
2022-10-18T04:12:22.484Z,16.50
2022-10-18T04:14:55.649Z,16.30
2022-10-18T04:17:28.315Z,16.40
2022-10-18T04:20:00.174Z,16.20
2022-10-18T04:25:05.699Z,15.90
2022-10-18T04:27:38.222Z,15.90
2022-10-18T04:30:10.727Z,15.90
2022-10-18T04:35:15.582Z,15.80
2022-10-18T04:37:48.131Z,15.90
2022-10-18T04:40:20.419Z,15.90
2022-10-18T04:42:52.678Z,15.80
2022-10-18T04:45:24.651Z,15.70
2022-10-18T04:47:57.171Z,15.70
2022-10-18T04:55:34.394Z,15.70
2022-10-18T04:58:06.947Z,15.60
2022-10-18T05:00:40.664Z,15.70
2022-10-18T05:03:14.279Z,15.70
2022-10-18T05:06:03.059Z,15.80
2022-10-18T05:08:36.415Z,16.00
2022-10-18T05:11:11.256Z,16.10
2022-10-18T05:16:20.527Z,16.50
2022-10-18T05:21:25.463Z,16.70
2022-10-18T05:23:58.203Z,16.70
2022-10-18T05:29:04.148Z,16.40
2022-10-18T05:34:09.172Z,16.30
2022-10-18T05:39:14.066Z,16.20
2022-10-18T05:41:46.007Z,16.30
2022-10-18T05:44:18.551Z,16.40
2022-10-18T05:49:23.608Z,13.40
2022-10-18T05:51:55.884Z,16.20
2022-10-18T05:54:27.766Z,16.30
2022-10-18T05:59:32.634Z,16.50
2022-10-18T06:02:05.183Z,16.60
2022-10-18T06:04:37.144Z,16.90
2022-10-18T06:07:11.633Z,17.10
2022-10-18T06:12:16.647Z,17.50
2022-10-18T06:14:49.357Z,17.70
2022-10-18T06:24:59.391Z,19.20
2022-10-18T06:32:39.679Z,19.70
2022-10-18T06:35:11.558Z,19.80
2022-10-18T06:37:44.328Z,19.80
2022-10-18T06:40:16.305Z,19.80
2022-10-18T06:42:59.938Z,18.60
2022-10-18T06:45:33.446Z,19.80
2022-10-18T06:53:10.998Z,19.90
2022-10-18T06:55:42.898Z,20.00
2022-10-18T06:58:15.286Z,20.20
2022-10-18T07:00:47.559Z,20.10
2022-10-18T07:03:22.082Z,20.10
2022-10-18T07:05:54.019Z,20.20
2022-10-18T07:08:26.280Z,20.30
2022-10-18T07:10:58.481Z,20.30
2022-10-18T07:13:33.351Z,20.30
2022-10-18T07:16:14.157Z,22.20
2022-10-18T07:18:51.847Z,20.30
2022-10-18T07:21:26.191Z,20.40
2022-10-18T07:23:58.553Z,20.40
2022-10-18T07:26:33.881Z,20.50
2022-10-18T07:29:09.511Z,20.40
2022-10-18T07:31:42.184Z,20.50
2022-10-18T07:34:14.650Z,20.60
2022-10-18T07:39:19.145Z,20.70
2022-10-18T07:44:24.086Z,20.80
2022-10-18T07:46:56.449Z,20.90
2022-10-18T07:49:28.313Z,20.90
2022-10-18T07:52:00.855Z,20.90
2022-10-18T07:54:32.949Z,20.90
2022-10-18T07:57:05.692Z,21.00
2022-10-18T07:59:38.766Z,21.10
2022-10-18T08:04:43.716Z,21.20
2022-10-18T08:07:16.274Z,21.30
2022-10-18T08:09:48.175Z,21.40
2022-10-18T08:17:26.036Z,22.10
2022-10-18T08:20:12.035Z,22.50
2022-10-18T08:22:51.554Z,23.20
2022-10-18T08:25:23.507Z,23.20
2022-10-18T08:27:55.948Z,22.80
2022-10-18T08:33:01.011Z,22.00
2022-10-18T08:35:32.911Z,22.40
2022-10-18T08:38:05.685Z,22.20
2022-10-18T08:40:44.323Z,22.20
2022-10-18T08:43:33.811Z,22.10
2022-10-18T08:46:06.101Z,21.80
2022-10-18T08:48:44.167Z,22.00
2022-10-18T08:51:45.915Z,23.00
2022-10-18T08:54:43.505Z,23.60
2022-10-18T08:57:18.254Z,22.90
2022-10-18T08:59:50.289Z,22.50
2022-10-18T09:02:50.466Z,22.00
2022-10-18T09:05:42.187Z,22.10
2022-10-18T09:08:23.573Z,22.30
2022-10-18T09:11:52.017Z,22.20
2022-10-18T09:14:51.282Z,21.90
2022-10-18T09:17:32.895Z,22.10
2022-10-18T09:20:26.328Z,22.30
2022-10-18T09:23:20.395Z,22.10
2022-10-18T09:28:53.576Z,22.30
2022-10-18T09:31:43.647Z,22.10
2022-10-18T09:34:25.000Z,21.90
2022-10-18T09:39:35.712Z,22.60
2022-10-18T09:42:48.143Z,22.20
2022-10-18T09:45:29.466Z,22.40
2022-10-18T09:48:31.079Z,22.70
2022-10-18T09:51:23.229Z,23.70
2022-10-18T09:54:17.432Z,23.70
2022-10-18T09:57:10.578Z,23.20
2022-10-18T09:59:47.003Z,23.40
2022-10-18T10:02:23.251Z,23.60
2022-10-18T10:07:42.001Z,23.50
2022-10-18T10:10:21.519Z,23.70
2022-10-18T10:13:17.259Z,23.10
2022-10-18T10:16:02.516Z,23.10
2022-10-18T10:18:39.483Z,23.10
2022-10-18T10:21:15.749Z,23.60
2022-10-18T10:23:58.365Z,23.90
2022-10-18T10:26:35.061Z,23.90
2022-10-18T10:29:49.768Z,23.90
2022-10-18T10:34:58.268Z,22.90
2022-10-18T10:37:35.898Z,23.20
2022-10-18T10:40:21.256Z,23.10
2022-10-18T10:43:13.036Z,24.10
2022-10-18T10:46:20.962Z,24.30
2022-10-18T10:49:27.526Z,25.00
2022-10-18T10:52:08.834Z,24.90
2022-10-18T10:57:27.989Z,26.80
2022-10-18T11:00:00.137Z,26.80
2022-10-18T11:02:36.524Z,26.10
2022-10-18T11:05:29.215Z,25.30
2022-10-18T11:08:04.733Z,25.50
2022-10-18T11:11:22.153Z,25.70
2022-10-18T11:14:25.722Z,26.00
2022-10-18T11:17:27.817Z,26.20
2022-10-18T11:20:24.107Z,26.20
2022-10-18T11:23:27.499Z,26.30
2022-10-18T11:26:13.881Z,26.30
2022-10-18T11:29:06.048Z,25.50
2022-10-18T11:32:07.417Z,24.90
2022-10-18T11:35:11.410Z,24.40
2022-10-18T11:38:04.969Z,24.10
2022-10-18T11:40:46.170Z,24.10
2022-10-18T11:44:02.114Z,24.60
2022-10-18T11:47:05.564Z,25.20
2022-10-18T11:50:08.060Z,25.20
2022-10-18T11:53:23.107Z,25.00
2022-10-18T11:56:25.626Z,24.50
2022-10-18T11:59:26.316Z,24.50
2022-10-18T12:02:41.698Z,24.80
2022-10-18T12:05:23.963Z,25.30
2022-10-18T12:08:26.623Z,25.40
2022-10-18T12:11:07.050Z,25.50
2022-10-18T12:14:05.300Z,25.60
2022-10-18T12:16:51.460Z,25.40
2022-10-18T12:19:28.289Z,25.70
2022-10-18T12:22:35.360Z,25.80
2022-10-18T12:25:14.741Z,25.60
2022-10-18T12:28:05.980Z,25.20
2022-10-18T12:30:55.170Z,25.00
2022-10-18T12:33:36.484Z,25.00
2022-10-18T12:39:07.831Z,25.00
2022-10-18T12:44:33.683Z,25.40
2022-10-18T12:47:06.936Z,25.30
2022-10-18T12:49:41.463Z,25.30
2022-10-18T12:52:26.615Z,25.00
2022-10-18T12:55:30.652Z,25.00
2022-10-18T12:58:25.670Z,24.90
2022-10-18T13:01:04.604Z,25.10
2022-10-18T13:03:52.097Z,25.10
2022-10-18T13:09:18.734Z,25.00
2022-10-18T13:11:55.758Z,25.00
2022-10-18T13:15:29.200Z,25.10
2022-10-18T13:18:23.995Z,25.00
2022-10-18T13:21:14.335Z,25.00
2022-10-18T13:24:16.540Z,25.00
2022-10-18T13:27:37.179Z,21.70
2022-10-18T13:30:10.881Z,24.70
2022-10-18T13:32:58.904Z,24.60
2022-10-18T13:35:57.508Z,24.60
2022-10-18T13:38:59.054Z,24.60
2022-10-18T13:41:43.243Z,24.50
2022-10-18T13:44:40.472Z,23.90
2022-10-18T13:47:33.977Z,24.50
2022-10-18T13:50:20.820Z,24.50
2022-10-18T13:53:21.035Z,24.50
2022-10-18T13:56:17.423Z,24.50
2022-10-18T13:59:33.962Z,24.40
2022-10-18T14:03:26.684Z,24.50
2022-10-18T14:06:42.473Z,24.50
2022-10-18T14:09:40.230Z,24.40
2022-10-18T14:12:41.013Z,24.40
2022-10-18T14:17:59.159Z,24.20
2022-10-18T14:20:55.117Z,24.20
2022-10-18T14:23:34.077Z,24.30
2022-10-18T14:26:09.297Z,24.30
2022-10-18T14:34:05.188Z,24.00
2022-10-18T14:36:41.179Z,24.00
2022-10-18T14:39:24.770Z,23.90
2022-10-18T14:41:58.469Z,23.70
2022-10-18T14:44:32.632Z,23.90
2022-10-18T14:47:18.180Z,23.70
2022-10-18T14:49:54.637Z,23.60
2022-10-18T14:52:35.788Z,23.70
2022-10-18T14:55:23.088Z,23.70
2022-10-18T14:57:55.645Z,23.70
2022-10-18T15:00:37.187Z,23.70
2022-10-18T15:03:14.657Z,23.70
2022-10-18T15:06:00.375Z,23.60
2022-10-18T15:08:43.550Z,23.60
2022-10-18T15:11:16.838Z,23.60
2022-10-18T15:14:07.055Z,23.60
2022-10-18T15:16:40.319Z,23.60
2022-10-18T15:19:15.875Z,23.60
2022-10-18T15:22:30.278Z,23.50
2022-10-18T15:25:29.278Z,23.50
2022-10-18T15:28:04.063Z,23.40
2022-10-18T15:30:43.715Z,23.40
2022-10-18T15:33:25.161Z,23.40
2022-10-18T15:36:10.291Z,23.30
2022-10-18T15:38:46.283Z,23.30
2022-10-18T15:41:56.969Z,23.20
2022-10-18T15:44:51.452Z,23.10
2022-10-18T15:47:25.259Z,23.10
2022-10-18T15:49:58.400Z,23.10
2022-10-18T15:52:43.045Z,23.00
2022-10-18T15:55:45.466Z,23.00
2022-10-18T15:58:23.468Z,22.80
2022-10-18T16:01:01.238Z,22.70
2022-10-18T16:03:36.067Z,22.60
2022-10-18T16:06:12.286Z,22.50
2022-10-18T16:08:53.352Z,22.40
2022-10-18T16:11:26.263Z,22.20
2022-10-18T16:14:00.438Z,22.00
2022-10-18T16:21:39.079Z,21.50
2022-10-18T16:29:24.529Z,21.00
2022-10-18T16:31:58.251Z,20.90
2022-10-18T16:34:32.491Z,20.80
2022-10-18T16:37:04.383Z,20.70
2022-10-18T16:42:09.251Z,20.50
2022-10-18T16:44:41.825Z,20.40
2022-10-18T16:49:47.171Z,20.30
2022-10-18T16:54:51.979Z,20.00
2022-10-18T16:57:23.853Z,20.00
2022-10-18T17:02:29.698Z,19.80
2022-10-18T17:10:08.719Z,19.40
2022-10-18T17:12:40.833Z,19.30
2022-10-18T17:17:47.930Z,19.20
2022-10-18T17:20:26.108Z,19.10
2022-10-18T17:30:41.953Z,19.00
2022-10-18T17:33:15.131Z,18.90
2022-10-18T17:35:48.681Z,18.90
2022-10-18T17:38:21.454Z,18.90
2022-10-18T17:40:53.423Z,18.80
2022-10-18T17:43:26.092Z,18.80
2022-10-18T17:45:57.943Z,18.70
2022-10-18T17:51:15.813Z,18.70
2022-10-18T17:53:48.808Z,18.70
2022-10-18T17:58:53.773Z,18.50
2022-10-18T18:01:25.949Z,18.50
2022-10-18T18:04:01.248Z,18.50
2022-10-18T18:06:39.002Z,18.40
2022-10-18T18:09:15.502Z,18.40
2022-10-18T18:11:48.397Z,18.30
2022-10-18T18:16:53.888Z,18.30
2022-10-18T18:21:59.386Z,18.30
2022-10-18T18:24:32.276Z,18.30
2022-10-18T18:29:36.814Z,18.80
2022-10-18T18:32:09.547Z,18.60
2022-10-18T18:34:42.527Z,18.30
2022-10-18T18:39:47.339Z,18.00
2022-10-18T18:42:19.859Z,17.80
2022-10-18T18:44:51.749Z,17.80
2022-10-18T18:47:24.352Z,17.70
2022-10-18T18:49:56.204Z,17.60
2022-10-18T18:55:01.008Z,17.40
2022-10-18T18:57:33.833Z,17.40
2022-10-18T19:00:09.226Z,17.40
2022-10-18T19:02:41.440Z,17.30
2022-10-18T19:05:13.374Z,17.30
2022-10-18T19:07:45.629Z,17.30
2022-10-18T19:10:17.535Z,17.20
2022-10-18T19:12:50.081Z,17.20
2022-10-18T19:15:22.553Z,17.20
2022-10-18T19:17:56.096Z,17.20
2022-10-18T19:20:27.977Z,17.10
2022-10-18T19:22:59.851Z,17.10
2022-10-18T19:25:31.772Z,17.00
2022-10-18T19:33:09.627Z,16.90
2022-10-18T19:35:41.487Z,16.80
2022-10-18T19:38:14.026Z,16.80
2022-10-18T19:40:50.329Z,16.80
2022-10-18T19:46:03.422Z,16.70
2022-10-18T19:48:35.971Z,16.50
2022-10-18T19:51:09.639Z,16.50
2022-10-18T19:53:43.268Z,16.50
2022-10-18T19:56:22.343Z,16.50
2022-10-18T19:58:57.176Z,16.50
2022-10-18T20:01:30.315Z,16.50
2022-10-18T20:04:04.806Z,16.50
2022-10-18T20:06:38.658Z,16.40
2022-10-18T20:09:14.825Z,16.40
2022-10-18T20:14:22.871Z,16.40
2022-10-18T20:19:27.704Z,16.40
2022-10-18T20:22:00.270Z,16.40
2022-10-18T20:29:37.510Z,16.30
2022-10-18T20:32:10.317Z,16.30
2022-10-18T20:34:42.173Z,16.30
2022-10-18T20:37:15.207Z,16.30
2022-10-18T20:39:47.231Z,16.30
2022-10-18T20:42:20.450Z,16.30
2022-10-18T20:44:52.453Z,16.30
2022-10-18T20:47:25.076Z,16.20
2022-10-18T20:49:56.993Z,16.20
2022-10-18T20:52:29.545Z,16.30
2022-10-18T20:55:01.465Z,16.30
2022-10-18T20:57:36.458Z,16.20
2022-10-18T21:00:11.595Z,16.20
2022-10-18T21:02:45.584Z,16.20
2022-10-18T21:10:25.081Z,16.00
2022-10-18T21:12:57.486Z,16.00
2022-10-18T21:15:29.332Z,16.00
2022-10-18T21:18:02.209Z,16.00
2022-10-18T21:20:34.089Z,15.90
2022-10-18T21:23:06.771Z,16.00
2022-10-18T21:25:50.138Z,15.90
2022-10-18T21:28:22.015Z,16.00
2022-10-18T21:30:54.889Z,15.90
2022-10-18T21:33:26.778Z,15.80
2022-10-18T21:36:02.637Z,15.80
2022-10-18T21:38:34.533Z,15.70
2022-10-18T21:41:13.032Z,15.70
2022-10-18T21:43:49.067Z,15.70
2022-10-18T21:46:23.427Z,15.60
2022-10-18T21:48:57.499Z,15.60
2022-10-18T21:51:29.494Z,15.50
2022-10-18T21:54:02.330Z,15.50
2022-10-18T21:56:35.873Z,15.30
2022-10-18T21:59:13.181Z,15.30
2022-10-18T22:01:45.696Z,15.20
2022-10-18T22:04:24.753Z,15.30
2022-10-18T22:06:56.622Z,15.20
2022-10-18T22:09:29.352Z,15.20
2022-10-18T22:12:01.225Z,15.10
2022-10-18T22:14:34.453Z,15.00
2022-10-18T22:17:06.459Z,15.00
2022-10-18T22:19:40.402Z,14.90
2022-10-18T22:22:12.355Z,14.90
2022-10-18T22:24:45.069Z,14.80
2022-10-18T22:27:17.414Z,14.80
2022-10-18T22:29:49.297Z,14.70
2022-10-18T22:32:22.057Z,14.70
2022-10-18T22:34:53.940Z,14.60
2022-10-18T22:39:59.036Z,14.70
2022-10-18T22:42:31.863Z,14.70
2022-10-18T22:45:04.155Z,14.60
2022-10-18T22:47:37.167Z,14.60
2022-10-18T22:50:10.381Z,14.60
2022-10-18T22:52:42.385Z,14.50
2022-10-18T22:55:15.119Z,14.50
2022-10-18T22:57:47.147Z,14.40
2022-10-18T23:00:19.593Z,14.40
2022-10-18T23:02:52.635Z,14.40
2022-10-18T23:05:24.527Z,14.40
2022-10-18T23:07:57.059Z,14.40
2022-10-18T23:10:28.907Z,14.40
2022-10-18T23:13:02.373Z,14.40
2022-10-18T23:15:35.693Z,14.40
2022-10-18T23:18:07.630Z,14.50
2022-10-18T23:20:40.230Z,14.50
2022-10-18T23:23:12.858Z,14.50
2022-10-18T23:25:46.064Z,14.50
2022-10-18T23:28:18.918Z,14.50
2022-10-18T23:30:51.458Z,14.40
2022-10-18T23:33:23.396Z,14.40
2022-10-18T23:35:56.005Z,14.40
2022-10-18T23:38:30.398Z,14.40
2022-10-18T23:41:03.177Z,14.40
2022-10-18T23:43:35.815Z,14.40
2022-10-18T23:48:41.150Z,14.40
2022-10-18T23:51:14.339Z,14.30
2022-10-18T23:56:19.652Z,14.10
2022-10-18T23:58:51.575Z,14.10
